»·PEaware :: N550JG KLAX-KSNA

N550JG :: KLAX-KSNA

FLIGHT INFORMATION

Flight Status: Arrived
Operator: Privately registered:
United States
More flights under this callsign
Pilot: Henry T. (21033)
Aircraft: CIRRUS SR-20
(SR20)
More flights by this aircraft type
Origin: KLAX Los Angeles Intl
United States
Destination: KSNA John Wayne-Orange Co
United States
More flights between these airports :: More routes between these airports
Route: SLI8 SLI
File this flight plan on PilotEdge
Remarks:
Altitude:
(Current/Filed)
4,000ft
Speed:
(Current/Filed)
140kts
Departed: 20-May-20 06:57 PM
Arrived: 20-May-20 07:31 PM
Distance/Time
Traveled:
31nm/0:34
Distance/Time
To Go:
Arrived

Flight Plot

Page will automatically refresh every two minutes.


Map Options




Map Legend


Flown Route
Filed Route
Departure Airport
Arrival Airport
Navaid (VOR, NDB)
Fix

Horizontal Profiles

Position Reports

Time Latitude Longitude Heading Altitude Ground
Speed
20-May-20 18:39 33.934116 -118.395320 179 104ft 0kts
20-May-20 18:40 33.934116 -118.395320 179 104ft 0kts
20-May-20 18:41 33.934116 -118.395320 179 104ft 0kts
20-May-20 18:42 33.934116 -118.395320 179 104ft 0kts
20-May-20 18:43 33.934116 -118.395320 179 104ft 0kts
20-May-20 18:44 33.934116 -118.395320 179 104ft 0kts
20-May-20 18:45 33.934116 -118.395320 179 104ft 0kts
20-May-20 18:46 33.934116 -118.395320 179 104ft 0kts
20-May-20 18:47 33.934116 -118.395320 179 104ft 0kts
20-May-20 18:48 33.934116 -118.395320 179 104ft 0kts
20-May-20 18:49 33.934116 -118.395320 179 104ft 0kts
20-May-20 18:50 33.934259 -118.394078 73 103ft 9kts
20-May-20 18:51 33.935311 -118.390843 84 101ft 22kts
20-May-20 18:52 33.935842 -118.385616 83 98ft 19kts
20-May-20 18:53 33.936478 -118.382839 354 96ft 0kts
20-May-20 18:54 33.936478 -118.382839 354 96ft 0kts
20-May-20 18:55 33.937308 -118.383613 261 97ft 19kts
20-May-20 18:56 33.935950 -118.403005 263 672ft 73kts
20-May-20 18:57 33.932509 -118.435341 231 1673ft 98kts
20-May-20 18:58 33.892749 -118.463757 213 3013ft 105kts
20-May-20 18:59 33.843506 -118.497091 213 4029ft 136kts
20-May-20 19:00 33.761019 -118.553256 212 4018ft 151kts
20-May-20 19:01 33.711418 -118.534158 49 4050ft 163kts
20-May-20 19:02 33.740369 -118.471490 82 4051ft 166kts
20-May-20 19:03 33.745788 -118.416157 80 4056ft 166kts
20-May-20 19:04 33.751713 -118.361048 80 4038ft 166kts
20-May-20 19:05 33.757583 -118.306150 80 4037ft 166kts
20-May-20 19:06 33.763427 -118.251185 80 4024ft 166kts
20-May-20 19:07 33.768991 -118.197029 80 4007ft 165kts
20-May-20 19:08 33.774562 -118.143686 80 4004ft 160kts
20-May-20 19:09 33.779725 -118.094871 80 4000ft 152kts
20-May-20 19:10 33.785856 -118.046311 66 4000ft 150kts
20-May-20 19:11 33.804191 -118.003327 60 3982ft 150kts
20-May-20 19:12 33.821958 -117.959620 61 3978ft 149kts
20-May-20 19:13 33.839701 -117.915743 61 3977ft 148kts
20-May-20 19:14 33.857550 -117.871604 61 3972ft 147kts
20-May-20 19:15 33.875445 -117.827327 61 3966ft 147kts
20-May-20 19:16 33.893321 -117.782942 62 3865ft 151kts
20-May-20 19:17 33.912589 -117.735066 62 3453ft 160kts
20-May-20 19:18 33.938249 -117.697057 16 3436ft 147kts
20-May-20 19:19 33.975537 -117.678183 24 3431ft 144kts
20-May-20 19:20 33.990450 -117.698771 217 3508ft 143kts
20-May-20 19:21 33.952744 -117.686509 167 3489ft 156kts
20-May-20 19:22 33.917653 -117.713174 216 3508ft 156kts
20-May-20 19:23 33.879515 -117.739068 207 3506ft 157kts
20-May-20 19:24 33.840560 -117.763890 208 3433ft 162kts
20-May-20 19:25 33.799014 -117.790529 209 2662ft 170kts
20-May-20 19:26 33.760555 -117.814936 209 1810ft 137kts
20-May-20 19:27 33.730916 -117.833721 209 1175ft 104kts
20-May-20 19:28 33.708534 -117.847934 208 680ft 87kts
20-May-20 19:29 33.687637 -117.861214 208 268ft 75kts
20-May-20 19:30 33.675963 -117.868716 217 58ft 15kts
20-May-20 19:31 33.676088 -117.869884 321 58ft 8kts
20-May-20 19:32 33.676288 -117.871086 222 58ft 0kts

Navigation Log

Ident Type
Flight plan parsing failed, navigation log unavailable